sensor_id;sensor_type;location;lat;lon;timestamp;pressure;altitude;pressure_sealevel;temperature;humidity
21826;BME280;11075;47.944;11.776;2023-03-18T00:01:15;94371.72;;;-4.38;59.17
21826;BME280;11075;47.944;11.776;2023-03-18T00:03:42;94380.88;;;-4.08;57.00
21826;BME280;11075;47.944;11.776;2023-03-18T00:06:19;94381.13;;;-4.42;59.46
21826;BME280;11075;47.944;11.776;2023-03-18T00:08:48;94378.63;;;-2.95;52.25
21826;BME280;11075;47.944;11.776;2023-03-18T00:11:16;94380.97;;;-3.61;54.97
21826;BME280;11075;47.944;11.776;2023-03-18T00:13:44;94372.53;;;-4.00;57.43
21826;BME280;11075;47.944;11.776;2023-03-18T00:16:12;94383.88;;;-2.95;52.24
21826;BME280;11075;47.944;11.776;2023-03-18T00:18:39;94382.44;;;-5.20;63.73
21826;BME280;11075;47.944;11.776;2023-03-18T00:21:08;94383.69;;;-4.20;58.62
21826;BME280;11075;47.944;11.776;2023-03-18T00:23:35;94386.50;;;-3.94;56.28
21826;BME280;11075;47.944;11.776;2023-03-18T00:26:03;94397.22;;;-2.24;52.70
21826;BME280;11075;47.944;11.776;2023-03-18T00:28:30;94390.06;;;-4.43;58.56
21826;BME280;11075;47.944;11.776;2023-03-18T00:31:07;94390.56;;;-0.21;45.52
21826;BME280;11075;47.944;11.776;2023-03-18T00:33:37;94393.88;;;-1.04;46.12
21826;BME280;11075;47.944;11.776;2023-03-18T00:36:07;94403.75;;;-0.16;43.52
21826;BME280;11075;47.944;11.776;2023-03-18T00:38:36;94400.88;;;-0.20;42.77
21826;BME280;11075;47.944;11.776;2023-03-18T00:41:03;94404.34;;;0.44;40.93
21826;BME280;11075;47.944;11.776;2023-03-18T00:43:44;94383.28;;;-0.99;44.44
21826;BME280;11075;47.944;11.776;2023-03-18T00:46:17;94379.47;;;-1.42;45.59
21826;BME280;11075;47.944;11.776;2023-03-18T00:48:44;94399.63;;;-4.00;54.39
21826;BME280;11075;47.944;11.776;2023-03-18T00:51:12;94406.19;;;-4.34;57.46
21826;BME280;11075;47.944;11.776;2023-03-18T00:53:44;94410.03;;;-4.15;56.25
21826;BME280;11075;47.944;11.776;2023-03-18T00:56:12;94415.97;;;-4.30;58.14
21826;BME280;11075;47.944;11.776;2023-03-18T00:58:39;94408.75;;;-3.80;56.15
21826;BME280;11075;47.944;11.776;2023-03-18T01:01:08;94414.34;;;-4.04;56.78
21826;BME280;11075;47.944;11.776;2023-03-18T01:03:35;94414.06;;;-4.07;57.28
21826;BME280;11075;47.944;11.776;2023-03-18T01:06:02;94421.69;;;-5.52;63.97
21826;BME280;11075;47.944;11.776;2023-03-18T01:08:30;94419.66;;;-5.28;60.99
21826;BME280;11075;47.944;11.776;2023-03-18T01:10:57;94412.00;;;-5.30;61.78
21826;BME280;11075;47.944;11.776;2023-03-18T01:13:24;94412.78;;;-4.32;56.43
21826;BME280;11075;47.944;11.776;2023-03-18T01:15:52;94409.34;;;-4.64;57.52
21826;BME280;11075;47.944;11.776;2023-03-18T01:18:21;94405.34;;;-4.40;58.52
21826;BME280;11075;47.944;11.776;2023-03-18T01:20:49;94405.56;;;-4.14;56.23
21826;BME280;11075;47.944;11.776;2023-03-18T01:23:19;94403.94;;;-4.52;56.65
21826;BME280;11075;47.944;11.776;2023-03-18T01:25:46;94412.78;;;-4.85;59.04
21826;BME280;11075;47.944;11.776;2023-03-18T01:28:17;94409.31;;;-4.91;58.42
21826;BME280;11075;47.944;11.776;2023-03-18T01:30:46;94409.03;;;-4.68;57.24
21826;BME280;11075;47.944;11.776;2023-03-18T01:33:16;94409.34;;;-4.05;54.63
21826;BME280;11075;47.944;11.776;2023-03-18T01:35:43;94409.31;;;-5.35;60.77
21826;BME280;11075;47.944;11.776;2023-03-18T01:38:14;94410.06;;;-5.17;60.17
21826;BME280;11075;47.944;11.776;2023-03-18T01:40:41;94408.63;;;-4.54;57.18
21826;BME280;11075;47.944;11.776;2023-03-18T01:43:17;94404.81;;;-4.42;55.58
21826;BME280;11075;47.944;11.776;2023-03-18T01:45:51;94408.34;;;-5.07;58.34
21826;BME280;11075;47.944;11.776;2023-03-18T01:48:21;94399.91;;;-5.09;57.47
21826;BME280;11075;47.944;11.776;2023-03-18T01:50:58;94405.06;;;-4.70;58.96
21826;BME280;11075;47.944;11.776;2023-03-18T01:53:30;94406.06;;;-4.49;56.45
21826;BME280;11075;47.944;11.776;2023-03-18T01:55:58;94408.69;;;-4.76;60.38
21826;BME280;11075;47.944;11.776;2023-03-18T01:58:31;94405.22;;;-5.04;59.93
21826;BME280;11075;47.944;11.776;2023-03-18T02:01:03;94409.22;;;-4.47;58.60
21826;BME280;11075;47.944;11.776;2023-03-18T02:03:32;94403.25;;;-4.91;60.28
21826;BME280;11075;47.944;11.776;2023-03-18T02:06:00;94411.38;;;-4.12;56.15
21826;BME280;11075;47.944;11.776;2023-03-18T02:08:27;94408.53;;;-4.38;56.53
21826;BME280;11075;47.944;11.776;2023-03-18T02:10:55;94417.31;;;-4.54;57.58
21826;BME280;11075;47.944;11.776;2023-03-18T02:13:23;94405.16;;;-4.60;58.38
21826;BME280;11075;47.944;11.776;2023-03-18T02:15:58;94420.94;;;-4.60;58.23
21826;BME280;11075;47.944;11.776;2023-03-18T02:18:37;94420.09;;;-5.14;60.44
21826;BME280;11075;47.944;11.776;2023-03-18T02:21:36;94423.31;;;-4.32;56.68
21826;BME280;11075;47.944;11.776;2023-03-18T02:26:59;94434.53;;;-4.68;55.92
21826;BME280;11075;47.944;11.776;2023-03-18T02:29:35;94436.56;;;-4.75;57.51
21826;BME280;11075;47.944;11.776;2023-03-18T02:32:07;94429.16;;;-4.78;59.02
21826;BME280;11075;47.944;11.776;2023-03-18T02:34:36;94436.59;;;-6.25;68.87
21826;BME280;11075;47.944;11.776;2023-03-18T02:37:04;94436.16;;;-5.11;62.70
21826;BME280;11075;47.944;11.776;2023-03-18T02:39:36;94435.19;;;-5.05;61.85
21826;BME280;11075;47.944;11.776;2023-03-18T02:42:03;94441.22;;;-4.82;59.98
21826;BME280;11075;47.944;11.776;2023-03-18T02:44:31;94437.06;;;-5.22;62.33
21826;BME280;11075;47.944;11.776;2023-03-18T02:47:23;94437.06;;;-5.61;67.91
21826;BME280;11075;47.944;11.776;2023-03-18T02:49:53;94440.25;;;-5.75;67.05
21826;BME280;11075;47.944;11.776;2023-03-18T02:52:20;94446.78;;;-5.95;67.03
21826;BME280;11075;47.944;11.776;2023-03-18T02:54:47;94449.75;;;-5.36;62.24
21826;BME280;11075;47.944;11.776;2023-03-18T02:57:14;94447.41;;;-5.15;61.64
21826;BME280;11075;47.944;11.776;2023-03-18T02:59:44;94446.06;;;-4.96;61.25
21826;BME280;11075;47.944;11.776;2023-03-18T03:02:11;94456.94;;;-5.81;66.17
21826;BME280;11075;47.944;11.776;2023-03-18T03:04:39;94458.47;;;-5.85;67.01
21826;BME280;11075;47.944;11.776;2023-03-18T03:07:06;94462.88;;;-6.36;68.96
21826;BME280;11075;47.944;11.776;2023-03-18T03:09:37;94462.66;;;-5.68;63.77
21826;BME280;11075;47.944;11.776;2023-03-18T03:12:05;94465.50;;;-5.36;63.73
21826;BME280;11075;47.944;11.776;2023-03-18T03:14:37;94461.00;;;-5.18;62.58
21826;BME280;11075;47.944;11.776;2023-03-18T03:17:05;94466.31;;;-5.69;64.00
21826;BME280;11075;47.944;11.776;2023-03-18T03:19:32;94471.53;;;-6.36;67.89
21826;BME280;11075;47.944;11.776;2023-03-18T03:22:00;94471.41;;;-6.58;70.80
21826;BME280;11075;47.944;11.776;2023-03-18T03:24:27;94480.94;;;-4.57;63.57
21826;BME280;11075;47.944;11.776;2023-03-18T03:26:54;94475.72;;;-5.39;63.60
21826;BME280;11075;47.944;11.776;2023-03-18T03:29:21;94479.84;;;-5.05;64.28
21826;BME280;11075;47.944;11.776;2023-03-18T03:31:48;94478.00;;;-5.04;61.04
21826;BME280;11075;47.944;11.776;2023-03-18T03:34:15;94480.88;;;-4.62;58.02
21826;BME280;11075;47.944;11.776;2023-03-18T03:36:42;94486.41;;;-5.63;63.31
21826;BME280;11075;47.944;11.776;2023-03-18T03:39:09;94486.22;;;-4.79;58.96
21826;BME280;11075;47.944;11.776;2023-03-18T03:41:36;94489.31;;;-5.93;65.07
21826;BME280;11075;47.944;11.776;2023-03-18T03:44:03;94487.91;;;-5.11;60.57
21826;BME280;11075;47.944;11.776;2023-03-18T03:46:30;94496.75;;;-5.56;64.02
21826;BME280;11075;47.944;11.776;2023-03-18T03:48:58;94490.53;;;-5.50;65.10
21826;BME280;11075;47.944;11.776;2023-03-18T03:51:24;94490.13;;;-4.81;59.98
21826;BME280;11075;47.944;11.776;2023-03-18T03:53:52;94493.16;;;-5.67;66.35
21826;BME280;11075;47.944;11.776;2023-03-18T03:56:19;94499.50;;;-5.79;68.31
21826;BME280;11075;47.944;11.776;2023-03-18T03:58:46;94509.66;;;-6.00;66.96
21826;BME280;11075;47.944;11.776;2023-03-18T04:01:13;94508.28;;;-5.57;65.11
21826;BME280;11075;47.944;11.776;2023-03-18T04:03:42;94507.97;;;-6.51;70.20
21826;BME280;11075;47.944;11.776;2023-03-18T04:06:10;94507.69;;;-5.76;66.44
21826;BME280;11075;47.944;11.776;2023-03-18T04:08:44;94508.09;;;-5.84;64.15
21826;BME280;11075;47.944;11.776;2023-03-18T04:11:11;94504.22;;;-5.09;60.03
21826;BME280;11075;47.944;11.776;2023-03-18T04:13:40;94503.69;;;-4.68;57.79
21826;BME280;11075;47.944;11.776;2023-03-18T04:16:07;94508.19;;;-5.45;62.50
21826;BME280;11075;47.944;11.776;2023-03-18T04:18:34;94511.88;;;-6.08;69.39
21826;BME280;11075;47.944;11.776;2023-03-18T04:21:02;94507.81;;;-6.16;69.33
21826;BME280;11075;47.944;11.776;2023-03-18T04:23:43;94503.06;;;-5.18;61.48
21826;BME280;11075;47.944;11.776;2023-03-18T04:26:10;94518.47;;;-5.61;65.91
21826;BME280;11075;47.944;11.776;2023-03-18T04:28:39;94512.09;;;-5.65;67.97
21826;BME280;11075;47.944;11.776;2023-03-18T04:31:08;94505.16;;;-5.37;64.61
21826;BME280;11075;47.944;11.776;2023-03-18T04:33:35;94507.78;;;-4.99;61.58
21826;BME280;11075;47.944;11.776;2023-03-18T04:36:02;94507.34;;;-5.12;64.89
21826;BME280;11075;47.944;11.776;2023-03-18T04:38:29;94511.13;;;-5.03;61.99
21826;BME280;11075;47.944;11.776;2023-03-18T04:40:56;94509.00;;;-5.62;66.32
21826;BME280;11075;47.944;11.776;2023-03-18T04:43:24;94509.66;;;-5.16;62.07
21826;BME280;11075;47.944;11.776;2023-03-18T04:45:51;94515.16;;;-5.68;66.49
21826;BME280;11075;47.944;11.776;2023-03-18T04:48:19;94516.88;;;-6.24;68.21
21826;BME280;11075;47.944;11.776;2023-03-18T04:50:47;94516.66;;;-6.05;68.13
21826;BME280;11075;47.944;11.776;2023-03-18T04:53:19;94516.47;;;-5.53;66.18
21826;BME280;11075;47.944;11.776;2023-03-18T04:55:48;94504.97;;;-4.70;60.59
21826;BME280;11075;47.944;11.776;2023-03-18T04:58:18;94516.53;;;-5.32;63.22
21826;BME280;11075;47.944;11.776;2023-03-18T05:00:57;94516.78;;;-5.50;65.34
21826;BME280;11075;47.944;11.776;2023-03-18T05:03:32;94516.84;;;-5.28;64.17
21826;BME280;11075;47.944;11.776;2023-03-18T05:05:59;94517.31;;;-5.31;63.33
21826;BME280;11075;47.944;11.776;2023-03-18T05:08:36;94516.53;;;-5.32;64.50
21826;BME280;11075;47.944;11.776;2023-03-18T05:11:03;94511.44;;;-4.56;60.66
21826;BME280;11075;47.944;11.776;2023-03-18T05:13:31;94519.00;;;-5.42;65.24
21826;BME280;11075;47.944;11.776;2023-03-18T05:15:58;94519.78;;;-5.75;67.16
21826;BME280;11075;47.944;11.776;2023-03-18T05:18:26;94510.38;;;-5.87;65.99
21826;BME280;11075;47.944;11.776;2023-03-18T05:20:55;94512.38;;;-5.95;67.81
21826;BME280;11075;47.944;11.776;2023-03-18T05:23:22;94514.81;;;-4.82;61.97
21826;BME280;11075;47.944;11.776;2023-03-18T05:25:53;94520.09;;;-5.71;66.19
21826;BME280;11075;47.944;11.776;2023-03-18T05:28:23;94511.13;;;-5.59;65.79
21826;BME280;11075;47.944;11.776;2023-03-18T05:31:05;94517.09;;;-5.30;64.14
21826;BME280;11075;47.944;11.776;2023-03-18T05:33:37;94525.28;;;-5.43;64.41
21826;BME280;11075;47.944;11.776;2023-03-18T05:36:05;94522.78;;;-4.77;61.46
21826;BME280;11075;47.944;11.776;2023-03-18T05:38:38;94516.72;;;-4.56;59.79
21826;BME280;11075;47.944;11.776;2023-03-18T05:41:05;94519.47;;;-4.46;60.02
21826;BME280;11075;47.944;11.776;2023-03-18T05:43:36;94520.63;;;-5.02;62.40
21826;BME280;11075;47.944;11.776;2023-03-18T05:46:04;94522.34;;;-5.46;65.00
21826;BME280;11075;47.944;11.776;2023-03-18T05:48:44;94527.59;;;-5.46;65.66
21826;BME280;11075;47.944;11.776;2023-03-18T05:51:12;94524.16;;;-5.30;65.33
21826;BME280;11075;47.944;11.776;2023-03-18T05:53:39;94522.28;;;-5.51;65.05
21826;BME280;11075;47.944;11.776;2023-03-18T05:56:18;94518.47;;;-5.05;62.51
21826;BME280;11075;47.944;11.776;2023-03-18T05:58:49;94518.19;;;-4.65;62.32
21826;BME280;11075;47.944;11.776;2023-03-18T06:01:25;94519.13;;;-4.01;58.55
21826;BME280;11075;47.944;11.776;2023-03-18T06:03:53;94518.44;;;-4.18;59.06
21826;BME280;11075;47.944;11.776;2023-03-18T06:06:21;94518.03;;;-3.78;57.27
21826;BME280;11075;47.944;11.776;2023-03-18T06:08:47;94518.53;;;-4.56;61.20
21826;BME280;11075;47.944;11.776;2023-03-18T06:11:14;94523.44;;;-4.43;61.42
21826;BME280;11075;47.944;11.776;2023-03-18T06:13:42;94520.03;;;-4.17;60.62
21826;BME280;11075;47.944;11.776;2023-03-18T06:16:11;94522.28;;;-4.96;63.61
21826;BME280;11075;47.944;11.776;2023-03-18T06:18:38;94524.53;;;-4.83;64.97
21826;BME280;11075;47.944;11.776;2023-03-18T06:21:08;94519.41;;;-4.95;65.50
21826;BME280;11075;47.944;11.776;2023-03-18T06:23:35;94527.00;;;-4.76;65.98
21826;BME280;11075;47.944;11.776;2023-03-18T06:26:04;94522.72;;;-4.12;60.28
21826;BME280;11075;47.944;11.776;2023-03-18T06:28:37;94526.81;;;-3.35;56.80
21826;BME280;11075;47.944;11.776;2023-03-18T06:31:08;94518.91;;;-2.88;54.72
21826;BME280;11075;47.944;11.776;2023-03-18T06:33:37;94529.53;;;-3.20;56.87
21826;BME280;11075;47.944;11.776;2023-03-18T06:36:06;94532.22;;;-2.68;55.50
21826;BME280;11075;47.944;11.776;2023-03-18T06:38:33;94532.88;;;-2.30;54.29
21826;BME280;11075;47.944;11.776;2023-03-18T06:41:01;94522.06;;;-2.23;53.93
21826;BME280;11075;47.944;11.776;2023-03-18T06:43:34;94522.19;;;-1.73;52.42
21826;BME280;11075;47.944;11.776;2023-03-18T06:46:01;94528.00;;;-2.63;55.37
21826;BME280;11075;47.944;11.776;2023-03-18T06:48:29;94523.03;;;-3.07;57.20
21826;BME280;11075;47.944;11.776;2023-03-18T06:50:58;94530.06;;;-2.03;54.79
21826;BME280;11075;47.944;11.776;2023-03-18T06:53:30;94538.56;;;-1.86;54.56
21826;BME280;11075;47.944;11.776;2023-03-18T06:55:57;94535.66;;;-1.08;51.76
21826;BME280;11075;47.944;11.776;2023-03-18T06:58:32;94524.56;;;-1.41;53.32
21826;BME280;11075;47.944;11.776;2023-03-18T07:01:06;94516.78;;;-0.61;51.70
21826;BME280;11075;47.944;11.776;2023-03-18T07:03:39;94522.94;;;-2.02;56.23
21826;BME280;11075;47.944;11.776;2023-03-18T07:06:07;94518.41;;;-0.70;52.46
21826;BME280;11075;47.944;11.776;2023-03-18T07:08:37;94523.00;;;0.18;50.62
21826;BME280;11075;47.944;11.776;2023-03-18T07:11:04;94522.22;;;0.85;48.86
21826;BME280;11075;47.944;11.776;2023-03-18T07:13:35;94526.09;;;0.69;48.66
21826;BME280;11075;47.944;11.776;2023-03-18T07:16:05;94520.00;;;-0.15;53.32
21826;BME280;11075;47.944;11.776;2023-03-18T07:18:32;94521.97;;;0.53;51.88
21826;BME280;11075;47.944;11.776;2023-03-18T07:20:59;94530.56;;;0.35;51.66
21826;BME280;11075;47.944;11.776;2023-03-18T07:23:26;94525.16;;;0.84;49.97
21826;BME280;11075;47.944;11.776;2023-03-18T07:25:55;94527.28;;;-0.40;52.88
21826;BME280;11075;47.944;11.776;2023-03-18T07:28:23;94528.88;;;0.54;52.86
21826;BME280;11075;47.944;11.776;2023-03-18T07:30:51;94531.31;;;1.80;48.51
21826;BME280;11075;47.944;11.776;2023-03-18T07:33:19;94526.53;;;2.20;47.44
21826;BME280;11075;47.944;11.776;2023-03-18T07:35:46;94529.41;;;0.85;51.48
21826;BME280;11075;47.944;11.776;2023-03-18T07:38:13;94525.97;;;0.84;53.59
21826;BME280;11075;47.944;11.776;2023-03-18T07:40:40;94527.94;;;1.50;51.52
21826;BME280;11075;47.944;11.776;2023-03-18T07:43:08;94536.75;;;1.46;50.66
21826;BME280;11075;47.944;11.776;2023-03-18T07:45:35;94523.38;;;1.99;50.09
21826;BME280;11075;47.944;11.776;2023-03-18T07:48:02;94532.31;;;3.10;47.86
21826;BME280;11075;47.944;11.776;2023-03-18T07:50:30;94533.41;;;2.58;46.82
21826;BME280;11075;47.944;11.776;2023-03-18T07:52:58;94533.44;;;3.51;45.21
21826;BME280;11075;47.944;11.776;2023-03-18T07:55:26;94515.69;;;4.23;44.33
21826;BME280;11075;47.944;11.776;2023-03-18T07:57:52;94528.47;;;4.13;43.22
21826;BME280;11075;47.944;11.776;2023-03-18T08:00:20;94527.63;;;4.26;44.63
21826;BME280;11075;47.944;11.776;2023-03-18T08:02:47;94522.63;;;4.11;43.64
21826;BME280;11075;47.944;11.776;2023-03-18T08:05:14;94534.91;;;3.57;42.91
21826;BME280;11075;47.944;11.776;2023-03-18T08:07:42;94543.75;;;3.11;44.20
21826;BME280;11075;47.944;11.776;2023-03-18T08:10:10;94520.53;;;3.71;44.29
21826;BME280;11075;47.944;11.776;2023-03-18T08:12:37;94532.84;;;2.94;44.00
21826;BME280;11075;47.944;11.776;2023-03-18T08:15:19;94520.31;;;3.40;45.50
21826;BME280;11075;47.944;11.776;2023-03-18T08:17:46;94538.91;;;4.23;42.37
21826;BME280;11075;47.944;11.776;2023-03-18T08:20:13;94532.72;;;3.45;44.00
21826;BME280;11075;47.944;11.776;2023-03-18T08:22:41;94542.81;;;4.39;41.80
21826;BME280;11075;47.944;11.776;2023-03-18T08:25:08;94529.81;;;3.74;43.12
21826;BME280;11075;47.944;11.776;2023-03-18T08:27:35;94530.75;;;4.42;41.95
21826;BME280;11075;47.944;11.776;2023-03-18T08:30:03;94543.81;;;6.72;38.66
21826;BME280;11075;47.944;11.776;2023-03-18T08:32:30;94537.03;;;5.66;39.00
21826;BME280;11075;47.944;11.776;2023-03-18T08:34:58;94514.06;;;6.39;40.29
21826;BME280;11075;47.944;11.776;2023-03-18T08:37:25;94504.59;;;6.16;39.43
21826;BME280;11075;47.944;11.776;2023-03-18T08:39:53;94534.06;;;5.67;38.76
21826;BME280;11075;47.944;11.776;2023-03-18T08:42:20;94515.72;;;7.13;38.94
21826;BME280;11075;47.944;11.776;2023-03-18T08:44:47;94543.84;;;7.53;35.90
21826;BME280;11075;47.944;11.776;2023-03-18T08:47:14;94520.84;;;6.45;37.29
21826;BME280;11075;47.944;11.776;2023-03-18T08:49:41;94495.91;;;5.45;39.30
21826;BME280;11075;47.944;11.776;2023-03-18T08:52:08;94549.81;;;7.59;35.04
21826;BME280;11075;47.944;11.776;2023-03-18T08:54:36;94528.06;;;6.88;36.51
21826;BME280;11075;47.944;11.776;2023-03-18T08:57:03;94569.03;;;7.99;33.55
21826;BME280;11075;47.944;11.776;2023-03-18T08:59:29;94550.44;;;8.03;34.24
21826;BME280;11075;47.944;11.776;2023-03-18T09:01:57;94555.06;;;8.65;33.61
21826;BME280;11075;47.944;11.776;2023-03-18T09:04:25;94543.78;;;8.00;33.63
21826;BME280;11075;47.944;11.776;2023-03-18T09:06:51;94534.03;;;7.57;34.43
21826;BME280;11075;47.944;11.776;2023-03-18T09:09:18;94530.91;;;7.85;34.32
21826;BME280;11075;47.944;11.776;2023-03-18T09:11:48;94508.47;;;7.13;35.77
21826;BME280;11075;47.944;11.776;2023-03-18T09:14:15;94540.25;;;8.59;33.05
21826;BME280;11075;47.944;11.776;2023-03-18T09:16:42;94564.66;;;9.40;31.78
21826;BME280;11075;47.944;11.776;2023-03-18T09:19:09;94551.84;;;8.92;32.01
21826;BME280;11075;47.944;11.776;2023-03-18T09:21:36;94503.69;;;8.04;34.82
21826;BME280;11075;47.944;11.776;2023-03-18T09:24:03;94566.81;;;9.47;31.19
21826;BME280;11075;47.944;11.776;2023-03-18T09:26:32;94540.44;;;9.86;31.98
21826;BME280;11075;47.944;11.776;2023-03-18T09:28:59;94574.75;;;10.50;29.78
21826;BME280;11075;47.944;11.776;2023-03-18T09:31:27;94568.47;;;9.84;29.84
21826;BME280;11075;47.944;11.776;2023-03-18T09:33:54;94567.78;;;9.88;29.83
21826;BME280;11075;47.944;11.776;2023-03-18T09:36:21;94584.59;;;9.72;28.46
21826;BME280;11075;47.944;11.776;2023-03-18T09:38:48;94582.41;;;9.53;28.65
21826;BME280;11075;47.944;11.776;2023-03-18T09:41:29;94611.59;;;9.31;27.51
21826;BME280;11075;47.944;11.776;2023-03-18T09:44:10;94606.78;;;9.36;27.57
21826;BME280;11075;47.944;11.776;2023-03-18T09:50:11;94617.72;;;10.22;26.41
21826;BME280;11075;47.944;11.776;2023-03-18T09:52:45;94602.78;;;10.12;27.88
21826;BME280;11075;47.944;11.776;2023-03-18T09:55:24;94581.41;;;8.21;29.31
21826;BME280;11075;47.944;11.776;2023-03-18T09:57:56;94592.78;;;9.88;27.48
21826;BME280;11075;47.944;11.776;2023-03-18T10:00:31;94619.75;;;10.37;26.02
21826;BME280;11075;47.944;11.776;2023-03-18T10:03:05;94631.06;;;10.55;25.39
21826;BME280;11075;47.944;11.776;2023-03-18T10:11:05;94669.28;;;11.77;23.10
21826;BME280;11075;47.944;11.776;2023-03-18T10:13:44;94641.38;;;10.16;25.05
21826;BME280;11075;47.944;11.776;2023-03-18T10:16:20;94613.66;;;11.44;26.25
21826;BME280;11075;47.944;11.776;2023-03-18T10:18:49;94615.56;;;11.72;25.69
21826;BME280;11075;47.944;11.776;2023-03-18T10:26:48;94662.28;;;12.51;22.90
21826;BME280;11075;47.944;11.776;2023-03-18T10:35:46;94615.28;;;12.91;25.22
21826;BME280;11075;47.944;11.776;2023-03-18T10:38:30;94619.78;;;13.80;24.25
21826;BME280;11075;47.944;11.776;2023-03-18T10:41:00;94615.06;;;11.98;24.67
21826;BME280;11075;47.944;11.776;2023-03-18T10:43:29;94613.28;;;12.53;24.60
21826;BME280;11075;47.944;11.776;2023-03-18T10:46:01;94642.53;;;13.17;23.51
21826;BME280;11075;47.944;11.776;2023-03-18T10:48:35;94611.34;;;13.85;23.90
21826;BME280;11075;47.944;11.776;2023-03-18T10:53:48;94641.19;;;13.27;22.34
21826;BME280;11075;47.944;11.776;2023-03-18T10:56:18;94610.88;;;12.48;23.93
21826;BME280;11075;47.944;11.776;2023-03-18T10:58:45;94593.03;;;11.52;24.83
21826;BME280;11075;47.944;11.776;2023-03-18T11:01:15;94604.34;;;11.42;23.64
21826;BME280;11075;47.944;11.776;2023-03-18T11:03:53;94595.38;;;13.38;23.80
21826;BME280;11075;47.944;11.776;2023-03-18T11:06:28;94631.09;;;14.08;22.03
21826;BME280;11075;47.944;11.776;2023-03-18T11:09:05;94626.84;;;14.30;22.46
21826;BME280;11075;47.944;11.776;2023-03-18T11:11:34;94637.31;;;13.09;22.13
21826;BME280;11075;47.944;11.776;2023-03-18T11:14:03;94628.94;;;13.94;21.54
21826;BME280;11075;47.944;11.776;2023-03-18T11:16:47;94634.22;;;14.10;21.28
21826;BME280;11075;47.944;11.776;2023-03-18T11:24:37;94598.75;;;12.26;23.58
21826;BME280;11075;47.944;11.776;2023-03-18T11:29:49;94607.06;;;15.09;21.91
21826;BME280;11075;47.944;11.776;2023-03-18T11:32:33;94618.16;;;14.97;21.05
21826;BME280;11075;47.944;11.776;2023-03-18T11:35:02;94628.31;;;12.85;21.28
21826;BME280;11075;47.944;11.776;2023-03-18T11:37:39;94591.63;;;12.02;22.73
21826;BME280;11075;47.944;11.776;2023-03-18T11:42:40;94607.22;;;14.63;20.67
21826;BME280;11075;47.944;11.776;2023-03-18T11:45:28;94577.69;;;14.84;21.75
21826;BME280;11075;47.944;11.776;2023-03-18T11:47:58;94577.78;;;12.70;22.34
21826;BME280;11075;47.944;11.776;2023-03-18T11:50:40;94595.63;;;15.97;20.14
21826;BME280;11075;47.944;11.776;2023-03-18T11:56:41;94575.38;;;13.84;21.45
21826;BME280;11075;47.944;11.776;2023-03-18T11:59:31;94582.31;;;11.99;21.56
21826;BME280;11075;47.944;11.776;2023-03-18T12:05:12;94555.66;;;14.59;21.29
21826;BME280;11075;47.944;11.776;2023-03-18T12:10:43;94535.56;;;14.64;22.32
21826;BME280;11075;47.944;11.776;2023-03-18T12:21:45;94551.19;;;14.74;20.71
21826;BME280;11075;47.944;11.776;2023-03-18T12:30:16;94533.69;;;11.36;22.82
21826;BME280;11075;47.944;11.776;2023-03-18T12:33:01;94529.00;;;15.29;20.44
21826;BME280;11075;47.944;11.776;2023-03-18T12:36:02;94520.59;;;15.04;22.12
21826;BME280;11075;47.944;11.776;2023-03-18T12:38:42;94500.94;;;13.97;23.13
21826;BME280;11075;47.944;11.776;2023-03-18T12:41:29;94523.75;;;16.35;21.49
21826;BME280;11075;47.944;11.776;2023-03-18T12:46:53;94538.25;;;17.43;19.81
21826;BME280;11075;47.944;11.776;2023-03-18T12:49:28;94545.28;;;17.55;19.25
21826;BME280;11075;47.944;11.776;2023-03-18T12:52:20;94540.31;;;13.49;21.79
21826;BME280;11075;47.944;11.776;2023-03-18T12:54:57;94558.19;;;16.71;19.49
21826;BME280;11075;47.944;11.776;2023-03-18T12:59:57;94571.81;;;18.65;18.20
21826;BME280;11075;47.944;11.776;2023-03-18T13:05:43;94548.13;;;15.76;20.38
21826;BME280;11075;47.944;11.776;2023-03-18T13:14:23;94505.34;;;16.10;21.78
21826;BME280;11075;47.944;11.776;2023-03-18T13:16:52;94490.34;;;13.89;22.85
21826;BME280;11075;47.944;11.776;2023-03-18T13:19:20;94501.34;;;15.53;21.58
21826;BME280;11075;47.944;11.776;2023-03-18T13:21:52;94506.66;;;15.83;21.16
21826;BME280;11075;47.944;11.776;2023-03-18T13:24:28;94483.94;;;15.57;22.19
21826;BME280;11075;47.944;11.776;2023-03-18T13:40:52;94455.44;;;12.73;23.72
21826;BME280;11075;47.944;11.776;2023-03-18T13:43:25;94454.75;;;13.18;23.30
21826;BME280;11075;47.944;11.776;2023-03-18T13:45:55;94473.09;;;13.51;22.68
21826;BME280;11075;47.944;11.776;2023-03-18T13:48:31;94479.19;;;13.94;21.64
21826;BME280;11075;47.944;11.776;2023-03-18T13:51:17;94478.28;;;14.36;21.85
21826;BME280;11075;47.944;11.776;2023-03-18T13:53:46;94456.75;;;14.20;22.94
21826;BME280;11075;47.944;11.776;2023-03-18T13:58:55;94433.97;;;12.61;24.59
21826;BME280;11075;47.944;11.776;2023-03-18T14:01:33;94435.50;;;13.23;23.32
21826;BME280;11075;47.944;11.776;2023-03-18T14:04:30;94446.19;;;14.11;22.74
21826;BME280;11075;47.944;11.776;2023-03-18T14:09:35;94413.25;;;13.33;24.07
21826;BME280;11075;47.944;11.776;2023-03-18T14:12:18;94410.44;;;13.26;24.12
21826;BME280;11075;47.944;11.776;2023-03-18T14:22:45;94388.41;;;13.51;23.59
21826;BME280;11075;47.944;11.776;2023-03-18T14:27:50;94377.34;;;12.68;24.67
21826;BME280;11075;47.944;11.776;2023-03-18T14:33:01;94389.50;;;12.58;24.25
21826;BME280;11075;47.944;11.776;2023-03-18T14:35:47;94378.88;;;11.41;25.04
21826;BME280;11075;47.944;11.776;2023-03-18T14:38:23;94347.03;;;11.47;26.00
21826;BME280;11075;47.944;11.776;2023-03-18T14:40:53;94370.53;;;11.46;25.20
21826;BME280;11075;47.944;11.776;2023-03-18T14:43:24;94351.03;;;12.65;24.81
21826;BME280;11075;47.944;11.776;2023-03-18T14:45:57;94362.47;;;10.99;25.58
21826;BME280;11075;47.944;11.776;2023-03-18T14:48:28;94350.75;;;11.93;25.21
21826;BME280;11075;47.944;11.776;2023-03-18T14:51:19;94337.06;;;10.84;26.63
21826;BME280;11075;47.944;11.776;2023-03-18T14:54:11;94355.38;;;11.57;25.53
21826;BME280;11075;47.944;11.776;2023-03-18T14:56:41;94345.63;;;11.68;25.39
21826;BME280;11075;47.944;11.776;2023-03-18T14:59:13;94326.53;;;10.95;26.31